Aérodrome :
LOGIN :

S'inscrire | Disclaimer

   EN    FR    IT 

 










Légende :    VFR   VFR Marginal   IFR   IFR Intensif   IFR Très Intensif
Visi : 
Plafond : 
>= 8 km
>= 3000ft
5 à 8 km
1000 à 3000 ft
1500m à 5 km
500 à 1000 ft
800 à 1500m
200 à 500 ft
< 800m
< 200 ft
Symboles :   Orages  Brouillard  Fortes neiges  Fortes précipitations  Vent > 20 kt
SIGMETs :   Divers  Orages  Givrage  Turbulence  Onde Orograph.  Cendres Volcan.






- Altitude de l'aérodrome : 46 ft
- Code IATA : SNN


EINN - Shannon

DERNIER METAR :
  • 190300Z 22010KT 9999 -RA SCT022 BKN050 06/04 Q1018 NOSIG

METARs EXPIRÉS :
  • 190230Z 22010KT 9999 FEW022 SCT040 BKN110 06/03 Q1019 NOSIG
  • 190200Z 22009KT 9999 FEW022 SCT040 BKN100 06/03 Q1019 NOSIG
  • 190130Z 23006KT 9999 FEW022 SCT040 BKN060 05/03 Q1019 NOSIG
  • 190100Z 25006KT 9999 FEW022 SCT040 BKN060 05/03 Q1019 NOSIG
  • 190030Z 25006KT 9999 FEW022 SCT040 BKN060 05/03 Q1019 NOSIG

TAF TAF EINN
Valide du 19 à 00h jusqu'au 20 à 00h UTC


182300Z 1900/1924 25012KT 9999 FEW020 BKN040
BECMG 1900/1902 22008KT
BECMG 1903/1905 17010KT
TEMPO 1904/1909 -RA BKN013
BECMG 1908/1910 19018G30KT
BECMG 1909/1911 -RA BKN013
BECMG 1910/1912 22020G33KT
TEMPO 1910/1914 4000 RADZ BKN009
PROB30
TEMPO 1915/1918 4000 -RADZ BKN009
TEMPO 1918/1924 4000 RA BKN010
BECMG 1921/1923 22016KT



MET'MAP, la Météo Aéronautique d'un coup d'oeil ! - Copyright ORBIFLY Décembre 2007 - Disclaimer

ORBIFLY MET'MAP TEAM :

Programmation & Développement : Alexandra Zaïnal
Sur une idée originale de : Baudouin d'Aumeries
Assistance à la programmation : Marc-Olivier Méhu
Soutien technique & logistique : Manuel Goepfert

Contact : metmap@orbifly.com




SOURCES & CREDITS :

   NOAA